Latest Weather Observations for White Cliffs AWS

IDN60801

Issued at 11:05 am EST Thursday 30 June 2016 (issued every 30 minutes, with the page automatically refreshed every 10 minutes)

About weather observations | Map of weather stations | Latest weather observations for NSW | Other Formats
Station Details ID: 046129 Name: WHITE CLIFFS AWS Lat: -30.85 Lon: 143.07 Height: 158.0 m
Data from the previous 72 hours. | See also: Recent months at White Cliffs AWS
Date/Time
EST
Temp
°C
App
Temp
°C
Dew
Point
°C
Rel
Hum
%
Delta-T
°C
Wind Press
QNH
hPa
Press
MSL
hPa
Rain since
9am
mm
Dir  Spd
km/h
Gust
km/h
Spd
kts
Gust
kts
30/11:00am 12.1 7.0 6.2 67 2.8 NNW 22 28 12 15 1020.1 1020.2 0.0
30/10:30am 10.6 4.7 5.8 72 2.2 NNW 26 32 14 17 1020.0 1020.1 0.0
30/10:00am 9.4 3.8 5.2 75 1.9 NNW 24 32 13 17 1020.2 1020.3 0.0
30/09:30am 8.6 3.7 5.0 78 1.6 NNW 20 28 11 15 1020.6 1020.7 0.0
30/09:00am 7.8 2.9 4.9 82 1.3 NNW 20 26 11 14 1020.7 1020.8 0.0
30/08:30am 6.4 2.3 4.6 88 0.8 NNW 15 19 8 10 1021.0 1021.1 0.0
30/08:00am 5.6 1.5 4.1 90 0.6 N 15 19 8 10 1020.7 1020.8 0.0
30/07:30am 5.7 1.9 4.0 89 0.7 NNW 13 15 7 8 1020.6 1020.7 0.0
30/07:00am 5.7 1.9 4.0 89 0.7 NNW 13 15 7 8 1020.4 1020.5 0.0
30/06:30am 5.9 2.5 4.2 89 0.7 NNW 11 13 6 7 1020.2 1020.3 0.0
30/06:00am 6.1 2.3 4.1 87 0.9 N 13 15 7 8 1020.1 1020.2 0.0
30/05:30am 6.1 2.4 4.3 88 0.8 N 13 17 7 9 1019.9 1020.0 0.0
30/05:00am 5.5 1.7 3.8 89 0.7 N 13 15 7 8 1020.0 1020.1 0.0
30/04:30am 4.7 1.1 3.2 90 0.6 N 11 13 6 7 1019.9 1020.0 0.0
30/04:00am 4.8 0.5 3.3 90 0.6 NNW 15 15 8 8 1019.9 1020.0 0.0
30/03:30am 4.8 1.2 3.1 89 0.7 NNW 11 13 6 7 1019.8 1019.9 0.0
30/03:00am 5.9 2.1 4.1 88 0.8 N 13 15 7 8 1020.0 1020.1 0.0
30/02:30am 4.6 0.7 3.4 92 0.5 N 13 15 7 8 1020.1 1020.2 0.0
30/02:00am 5.0 1.2 3.8 92 0.5 NNW 13 15 7 8 1020.5 1020.6 0.0
30/01:30am 5.1 2.0 3.6 90 0.6 NW 9 11 5 6 1020.7 1020.8 0.0
30/01:00am 6.2 2.9 4.4 88 0.8 NNE 11 13 6 7 1020.7 1020.8 0.0
30/12:30am 6.6 3.7 4.6 87 0.9 NNE 9 13 5 7 1021.1 1021.2 0.0
30/12:00am 7.1 3.1 4.9 86 1.0 NNE 15 17 8 9 1021.2 1021.3 0.0
 
Date/Time
EST
Temp
°C
App
Temp
°C
Dew
Point
°C
Rel
Hum
%
Delta-T
°C
Wind Press
QNH
hPa
Press
MSL
hPa
Rain since
9am
mm
Dir  Spd
km/h
Gust
km/h
Spd
kts
Gust
kts
29/11:30pm 6.8 3.1 4.6 86 1.0 NNE 13 15 7 8 1021.9 1022.0 0.0
29/11:00pm 7.3 3.7 5.0 85 1.0 NNE 13 13 7 7 1022.1 1022.2 0.0
29/10:30pm 7.4 3.4 5.0 85 1.1 NNE 15 15 8 8 1022.2 1022.3 0.0
29/10:00pm 8.1 4.1 5.0 81 1.4 NNE 15 15 8 8 1022.4 1022.5 0.0
29/09:30pm 8.3 4.4 5.4 82 1.3 NE 15 15 8 8 1022.8 1022.9 0.0
29/09:00pm 8.5 5.0 5.4 81 1.4 NNE 13 15 7 8 1023.4 1023.4 0.0
29/08:30pm 9.0 5.2 5.6 79 1.6 NNE 15 15 8 8 1023.7 1023.7 0.0
29/08:00pm 9.1 5.6 5.5 78 1.6 NE 13 17 7 9 1023.7 1023.7 0.0
29/07:30pm 9.8 6.3 5.6 75 1.9 NE 13 15 7 8 1023.8 1023.8 0.0
29/07:00pm 9.8 6.3 5.6 75 1.9 NE 13 15 7 8 1023.8 1023.8 0.0
29/06:30pm 10.4 7.3 5.6 72 2.2 NNE 11 11 6 6 1023.8 1023.8 0.0
29/06:00pm 11.4 8.3 5.5 67 2.7 N 11 13 6 7 1023.7 1023.7 0.0
29/05:30pm 12.8 9.2 5.0 59 3.6 N 13 19 7 10 1023.7 1023.7 0.0
29/05:00pm 13.8 10.2 5.2 56 4.0 N 13 19 7 10 1023.8 1023.8 0.0
29/04:30pm 14.2 10.1 4.2 51 4.6 NNE 15 20 8 11 1024.0 1024.1 0.0
29/04:00pm 14.5 10.8 4.5 51 4.6 NNE 13 20 7 11 1024.2 1024.3 0.0
29/03:30pm 14.8 10.8 4.8 51 4.7 NNE 15 20 8 11 1024.5 1024.6 0.0
29/03:00pm 14.5 10.8 4.2 50 4.8 NNE 13 19 7 10 1024.8 1024.9 0.0
29/02:30pm 14.5 10.8 4.5 51 4.7 NNE 13 17 7 9 1025.0 1025.1 0.0
29/02:00pm 14.3 10.6 4.6 52 4.5 N 13 20 7 11 1025.4 1025.5 0.0
29/01:30pm 14.6 11.0 5.1 53 4.5 NNE 13 19 7 10 1026.0 1026.1 0.0
29/01:00pm 14.1 10.2 3.6 49 4.8 N 13 20 7 11 1026.6 1026.7 0.0
29/12:30pm 13.7 9.4 5.1 56 4.0 N 17 20 9 11 1027.4 1027.5 0.0
29/12:00pm 13.4 8.7 5.1 57 3.9 NNE 19 22 10 12 1028.0 1028.1 0.0
29/11:30am 12.9 8.0 4.1 55 4.0 NNE 19 24 10 13 1028.4 1028.5 0.0
29/11:00am 12.8 8.0 4.8 58 3.7 NNE 19 24 10 13 1028.8 1028.9 0.0
29/10:30am 12.3 8.2 4.5 59 3.6 NNE 15 20 8 11 1029.2 1029.4 0.0
29/10:00am 11.7 8.1 4.9 63 3.1 NE 13 20 7 11 1029.4 1029.6 0.0
29/09:30am 10.3 8.0 5.7 73 2.1 E 7 9 4 5 1029.2 1029.4 0.0
29/09:00am 9.1 6.7 4.5 73 2.0 E 6 9 3 5 1029.0 1029.1 0.0
29/08:30am 7.9 4.9 4.3 78 1.6 ESE 9 11 5 6 1029.0 1029.1 0.0
29/08:00am 6.5 3.4 3.7 82 1.2 E 9 11 5 6 1028.8 1028.9 0.0
29/07:30am 5.7 2.1 3.2 84 1.0 E 11 13 6 7 1028.5 1028.6 0.0
29/07:00am 6.8 2.9 3.6 80 1.4 ESE 13 15 7 8 1028.3 1028.4 0.0
29/06:30am 6.4 2.1 3.4 81 1.3 E 15 17 8 9 1028.1 1028.2 0.0
29/06:00am 6.6 2.7 3.6 81 1.3 E 13 15 7 8 1027.8 1027.9 0.0
29/05:30am 7.0 3.1 3.6 79 1.5 ESE 13 15 7 8 1027.7 1027.8 0.0
29/05:00am 7.1 3.3 3.7 79 1.5 ESE 13 15 7 8 1027.6 1027.7 0.0
29/04:30am 7.6 3.9 4.2 79 1.5 ESE 13 17 7 9 1027.4 1027.5 0.0
29/04:00am 7.4 3.3 4.2 80 1.4 ESE 15 17 8 9 1027.5 1027.6 0.0
29/03:30am 7.7 3.6 4.5 80 1.4 ESE 15 17 8 9 1027.4 1027.5 0.0
29/03:00am 7.9 3.9 4.7 80 1.4 ESE 15 15 8 8 1027.6 1027.7 0.0
29/02:30am 7.2 3.2 4.7 84 1.1 ESE 15 17 8 9 1027.6 1027.7 0.0
29/02:00am 7.9 4.3 5.2 83 1.2 E 13 15 7 8 1027.9 1028.0 0.0
29/01:30am 7.9 4.7 5.2 83 1.2 E 11 13 6 7 1028.1 1028.2 0.0
29/01:00am 8.4 4.9 5.3 81 1.4 E 13 15 7 8 1028.0 1028.1 0.0
29/12:30am 7.9 4.9 5.9 87 0.9 E 11 13 6 7 1028.4 1028.5 0.0
29/12:00am 7.7 4.3 5.7 87 0.9 E 13 13 7 7 1028.3 1028.4 0.0
 
Date/Time
EST
Temp
°C
App
Temp
°C
Dew
Point
°C
Rel
Hum
%
Delta-T
°C
Wind Press
QNH
hPa
Press
MSL
hPa
Rain since
9am
mm
Dir  Spd
km/h
Gust
km/h
Spd
kts
Gust
kts
28/11:30pm 8.4 5.0 6.0 85 1.1 E 13 15 7 8 1028.6 1028.7 0.0
28/11:00pm 8.9 6.0 6.5 85 1.1 E 11 13 6 7 1028.8 1028.9 0.0
28/10:30pm 8.7 5.8 6.5 86 1.0 E 11 13 6 7 1029.0 1029.1 0.0
28/10:00pm 9.6 6.4 6.9 83 1.3 ESE 13 15 7 8 1029.0 1029.1 0.0
28/09:30pm 9.0 6.1 6.4 84 1.2 E 11 13 6 7 1029.0 1029.1 0.0
28/09:00pm 9.6 7.2 6.9 83 1.3 ESE 9 11 5 6 1028.9 1029.0 0.0
28/08:30pm 9.9 7.9 7.0 82 1.4 ESE 7 9 4 5 1028.8 1028.9 0.0
28/08:00pm 10.3 7.9 6.8 79 1.6 ESE 9 11 5 6 1028.7 1028.8 0.0
28/07:30pm 11.6 10.6 7.5 76 2.0 SE 2 13 1 7 1028.6 1028.7 0.0
28/07:00pm 12.3 11.7 7.2 71 2.5 CALM 0 0 0 0 1028.5 1028.6 0.0
28/06:30pm 12.7 12.1 7.6 71 2.5 CALM 0 0 0 0 1028.3 1028.4 0.0
28/06:00pm 13.2 12.2 7.4 68 2.8 SW 2 6 1 3 1028.3 1028.4 0.0
28/05:30pm 14.0 12.1 7.5 65 3.2 SSW 7 7 4 4 1028.1 1028.2 0.0
28/05:00pm 15.1 12.9 6.1 55 4.3 SW 7 9 4 5 1028.0 1028.1 0.0
28/04:30pm 15.5 13.4 5.7 52 4.7 SSW 6 11 3 6 1027.8 1027.9 0.0
28/04:00pm 15.9 13.7 5.5 50 5.0 NW 6 11 3 6 1027.6 1027.7 0.0
28/03:30pm 15.8 13.1 5.4 50 5.0 WNW 9 13 5 7 1027.5 1027.6 0.0
28/03:00pm 15.6 13.0 6.1 53 4.6 WNW 9 13 5 7 1027.5 1027.6 0.0
28/02:30pm 15.2 12.5 5.7 53 4.6 WSW 9 11 5 6 1027.5 1027.6 0.0
28/02:00pm 15.6 13.9 7.4 58 4.1 NW 6 9 3 5 1027.4 1027.5 0.0
28/01:30pm 15.4 14.0 7.2 58 4.1 WNW 4 7 2 4 1027.6 1027.7 0.0
28/01:00pm 14.6 13.0 7.9 64 3.3 SW 6 9 3 5 1027.7 1027.8 0.0
28/12:30pm 14.3 13.2 8.3 67 3.0 SSW 4 7 2 4 1028.0 1028.1 0.0
28/12:00pm 14.5 13.8 8.7 68 2.9 SSE 2 6 1 3 1028.4 1028.5 0.0
28/11:30am 12.7 11.0 8.2 74 2.2 SSW 7 11 4 6 1028.6 1028.7 0.0
28/11:00am 12.2 10.0 7.9 75 2.1 S 9 11 5 6 1028.7 1028.8 0.0
28/10:30am 11.6 10.0 8.1 79 1.7 SW 6 11 3 6 1028.8 1028.9 0.0
28/10:00am 10.7 9.1 7.8 82 1.4 WNW 6 9 3 5 1028.8 1028.9 0.0
28/09:30am 9.3 6.9 7.1 86 1.0 WNW 9 11 5 6 1028.4 1028.5 0.0
28/09:00am 8.4 6.1 7.3 93 0.5 NNW 9 11 5 6 1028.1 1028.2 0.4
28/08:30am 7.1 3.9 6.8 98 0.1 NW 13 15 7 8 1027.8 1027.9 0.4
28/08:00am 5.4 2.6 5.0 97 0.2 NNW 9 11 5 6 1027.4 1027.5 0.4
28/07:30am 5.8 2.7 5.4 97 0.2 NNW 11 13 6 7 1026.9 1027.0 0.4
28/07:00am 5.6 2.4 5.0 96 0.3 NNW 11 11 6 6 1026.4 1026.5 0.4
28/06:30am 6.2 3.1 5.5 95 0.3 NNW 11 11 6 6 1026.1 1026.2 0.4
28/06:00am 6.5 3.5 5.8 95 0.3 NNW 11 13 6 7 1025.7 1025.8 0.4
28/05:30am 7.1 4.9 6.4 95 0.3 NNW 7 9 4 5 1025.5 1025.6 0.4
28/05:00am 7.1 4.9 6.2 94 0.4 NNW 7 9 4 5 1025.2 1025.3 0.0
28/04:30am 7.3 4.8 6.4 94 0.4 NW 9 11 5 6 1025.2 1025.3 0.0
28/04:00am 7.6 4.7 6.5 93 0.5 NNW 11 13 6 7 1025.3 1025.4 0.0
28/03:30am 7.8 7.0 6.7 93 0.5 CALM 0 0 0 0 1025.3 1025.4 0.0
28/03:00am 7.8 7.0 6.7 93 0.5 CALM 0 0 0 0 1025.3 1025.4 0.0
28/02:30am 7.5 6.7 6.6 94 0.4 CALM 0 0 0 0 1025.4 1025.5 0.0
28/02:00am 7.2 5.6 6.3 94 0.4 WNW 4 6 2 3 1025.4 1025.5 0.0
28/01:30am 7.0 4.8 6.3 95 0.3 NW 7 7 4 4 1025.3 1025.4 0.0
28/01:00am 6.6 4.3 5.9 95 0.3 N 7 9 4 5 1025.3 1025.4 0.0
28/12:30am 6.2 4.0 5.2 93 0.4 N 6 7 3 4 1025.2 1025.3 0.0
28/12:00am 6.6 3.9 5.6 93 0.4 WNW 9 9 5 5 1025.2 1025.3 0.0
 
Date/Time
EST
Temp
°C
App
Temp
°C
Dew
Point
°C
Rel
Hum
%
Delta-T
°C
Wind Press
QNH
hPa
Press
MSL
hPa
Rain since
9am
mm
Dir  Spd
km/h
Gust
km/h
Spd
kts
Gust
kts
27/11:30pm 6.9 4.2 5.8 93 0.5 WNW 9 11 5 6 1025.3 1025.4 0.0
27/11:00pm 7.2 4.6 6.0 92 0.5 NW 9 11 5 6 1025.2 1025.3 0.0
27/10:30pm 7.6 4.7 6.4 92 0.6 NNW 11 11 6 6 1025.1 1025.2 0.0
27/10:00pm 7.6 5.0 6.2 91 0.6 NW 9 9 5 5 1024.9 1025.0 0.0
27/09:30pm 7.8 4.8 6.1 89 0.8 NW 11 13 6 7 1024.7 1024.8 0.0
27/09:00pm 8.3 5.0 6.6 89 0.8 NW 13 15 7 8 1024.4 1024.5 0.0
27/08:30pm 8.5 6.0 6.5 87 0.9 NW 9 11 5 6 1024.2 1024.3 0.0
27/08:00pm 8.7 7.9 6.7 87 0.9 CALM 0 0 0 0 1024.1 1024.2 0.0
27/07:30pm 9.5 8.7 6.4 81 1.5 CALM 0 0 0 0 1023.8 1023.8 0.0
27/07:00pm 9.8 9.0 6.5 80 1.5 CALM 0 0 0 0 1023.4 1023.4 0.0
27/06:30pm 9.8 7.9 6.7 81 1.5 SW 6 9 3 5 1023.0 1023.1 0.0
27/06:00pm 10.4 7.8 6.2 75 2.0 SW 9 11 5 6 1022.5 1022.6 0.0
27/05:30pm 12.0 9.1 6.5 69 2.6 SW 11 13 6 7 1022.2 1022.3 0.0
27/05:00pm 12.4 8.2 5.8 64 3.1 SW 17 20 9 11 1022.0 1022.1 0.0
27/04:30pm 13.3 8.9 5.0 57 3.9 SSW 17 20 9 11 1021.8 1021.9 0.0
27/04:00pm 13.7 9.6 6.1 60 3.6 SW 17 20 9 11 1021.5 1021.6 0.0
27/03:30pm 13.4 8.5 5.1 57 3.9 WSW 20 24 11 13 1021.4 1021.5 0.0
27/03:00pm 12.7 9.3 5.8 63 3.3 SW 13 24 7 13 1021.2 1021.3 0.0
27/02:30pm 12.4 9.2 5.1 61 3.4 SW 11 17 6 9 1021.2 1021.3 0.0
27/02:00pm 12.8 9.9 6.4 65 3.1 WSW 11 17 6 9 1021.2 1021.3 0.0
27/01:30pm 12.3 8.8 5.5 63 3.2 SW 13 20 7 11 1021.3 1021.4 0.0
27/01:00pm 11.6 8.2 6.1 69 2.6 SW 13 17 7 9 1021.6 1021.7 0.0
27/12:30pm 11.3 8.9 7.0 75 2.1 SW 9 15 5 8 1021.8 1021.9 0.0
27/12:00pm 11.2 8.3 6.3 72 2.3 SW 11 17 6 9 1022.1 1022.2 0.0
27/11:30am 10.7 7.0 6.5 75 2.0 WSW 15 20 8 11 1022.4 1022.5 0.0

Other Formats:

Comma delimited format used in spreadsheet applications
http://www.bom.gov.au/fwo/IDN60801/IDN60801.95699.axf

JavaScript Object Notation format (JSON) in row-major order
http://www.bom.gov.au/fwo/IDN60801/IDN60801.95699.json